Time;durP1;ratioP1;P1;durP2;ratioP2;P2;SDS_P1;SDS_P2;PMS_P1;PMS_P2;Temp;Humidity;BMP_temperature;BMP_pressure;BME280_temperature;BME280_humidity;BME280_pressure;Samples;Min_cycle;Max_cycle;Signal;HPM_P1;HPM_P2
2022/05/03 00:01:42;;;;;;;6.60;1.92;;;;;;;21.64;29.12;101312.31;5071790;28;20115;-52
2022/05/03 00:04:30;;;;;;;11.57;2.20;;;;;;;21.37;30.21;101302.41;5077611;28;20034;-52
2022/05/03 00:07:12;;;;;;;7.40;2.55;;;;;;;21.16;30.01;101306.13;5082912;28;20031;-51
2022/05/03 00:09:54;;;;;;;9.38;2.35;;;;;;;21.37;30.09;101309.78;5092843;28;20028;-52
2022/05/03 00:12:33;;;;;;;6.80;2.28;;;;;;;21.12;30.39;101305.84;5093219;28;20055;-52
2022/05/03 00:15:01;;;;;;;6.22;1.95;;;;;;;21.15;30.35;101299.84;5077756;28;20036;-51
2022/05/03 00:17:30;;;;;;;7.47;1.98;;;;;;;21.30;29.25;101299.94;5072145;28;20133;-51
2022/05/03 00:19:57;;;;;;;6.03;2.13;;;;;;;21.32;30.20;101294.22;5072025;28;20461;-48
2022/05/03 00:22:24;;;;;;;8.25;2.33;;;;;;;21.32;30.28;101294.22;5071843;28;20060;-49
2022/05/03 00:24:55;;;;;;;6.95;2.17;;;;;;;21.49;30.07;101304.94;5071838;28;20042;-51
2022/05/03 00:27:28;;;;;;;11.45;2.55;;;;;;;21.36;30.97;101295.34;5072811;28;20103;-49
2022/05/03 00:29:57;;;;;;;4.78;2.08;;;;;;;21.08;31.85;101286.50;5071499;28;20044;-48
2022/05/03 00:32:28;;;;;;;5.32;1.65;;;;;;;21.29;30.91;101301.03;5071737;28;20465;-51
2022/05/03 00:34:57;;;;;;;6.22;2.75;;;;;;;21.43;30.74;101295.09;5072366;28;20032;-51
2022/05/03 00:37:23;;;;;;;10.02;2.75;;;;;;;21.56;31.36;101291.88;5072234;28;20111;-51
2022/05/03 00:39:49;;;;;;;7.07;2.53;;;;;;;21.73;31.57;101283.47;5071666;28;20040;-50
2022/05/03 00:42:31;;;;;;;6.32;2.40;;;;;;;21.82;30.86;101276.38;5071506;28;20461;-52
2022/05/03 00:45:35;;;;;;;8.15;2.10;;;;;;;21.49;31.61;101289.41;5072141;28;20029;-50
2022/05/03 00:48:36;;;;;;;11.15;2.38;;;;;;;21.61;31.77;101289.16;5086009;28;20028;-53
2022/05/03 00:51:12;;;;;;;12.07;3.25;;;;;;;21.02;32.38;101295.72;5091710;28;20120;-54
2022/05/03 00:53:55;;;;;;;11.13;2.85;;;;;;;20.80;33.90;101298.59;5084893;28;20042;-55
2022/05/03 00:56:35;;;;;;;11.93;2.72;;;;;;;20.66;32.92;101297.44;5088807;28;20487;-52
2022/05/03 00:59:31;;;;;;;11.02;2.90;;;;;;;20.74;33.79;101299.63;5091335;28;20035;-54
2022/05/03 01:02:03;;;;;;;10.35;3.13;;;;;;;20.80;34.04;101297.78;5087007;28;20023;-56
2022/05/03 01:04:55;;;;;;;9.75;2.85;;;;;;;20.79;34.52;101293.41;5091477;28;20032;-56
2022/05/03 01:07:46;;;;;;;7.93;2.75;;;;;;;20.78;34.72;101287.16;5084245;28;20031;-53
2022/05/03 01:10:34;;;;;;;14.15;3.45;;;;;;;20.90;33.66;101283.41;5090240;28;20028;-53
2022/05/03 01:13:18;;;;;;;11.02;3.20;;;;;;;20.82;32.95;101287.44;5077359;28;20024;-54
2022/05/03 01:15:51;;;;;;;11.52;3.75;;;;;;;20.38;34.82;101284.16;5091307;28;20489;-55
2022/05/03 01:18:46;;;;;;;13.07;3.20;;;;;;;20.24;35.04;101286.47;5090433;28;20032;-55
2022/05/03 01:21:24;;;;;;;11.13;2.88;;;;;;;20.09;34.36;101279.00;5087114;28;20028;-55
2022/05/03 01:24:04;;;;;;;10.38;3.50;;;;;;;20.22;34.72;101280.47;5071242;28;20024;-55
2022/05/03 01:27:03;;;;;;;10.38;3.00;;;;;;;19.79;35.73;101287.69;5074720;28;20043;-55
2022/05/03 01:29:32;;;;;;;8.57;2.80;;;;;;;19.67;36.47;101274.28;5091241;28;20522;-55
2022/05/03 01:32:04;;;;;;;6.90;2.95;;;;;;;19.50;36.41;101273.50;5089786;28;20028;-55
2022/05/03 01:34:31;;;;;;;14.85;3.20;;;;;;;19.61;36.30;101275.28;5091722;28;20024;-52
2022/05/03 01:37:01;;;;;;;10.10;2.63;;;;;;;19.57;36.46;101281.47;5089546;28;20358;-51
2022/05/03 01:40:04;;;;;;;6.95;3.03;;;;;;;19.59;36.60;101277.44;5091527;28;20074;-51
2022/05/03 01:42:49;;;;;;;11.70;3.15;;;;;;;19.68;35.45;101275.09;5090259;28;20443;-52
2022/05/03 01:45:41;;;;;;;12.33;3.00;;;;;;;19.59;36.37;101282.03;5091235;28;20031;-52
2022/05/03 01:51:51;;;;;;;11.82;3.25;;;;;;;19.32;36.46;101282.81;5079216;28;20039;-55
2022/05/03 01:54:35;;;;;;;;;;;;;;;19.38;36.48;101286.41;5075715;28;20119;-55
2022/05/03 01:57:30;;;;;;;14.52;3.92;;;;;;;19.31;37.01;101291.19;5090658;28;20368;-56
2022/05/03 02:00:09;;;;;;;10.87;3.27;;;;;;;18.99;37.09;101295.44;5090116;28;20077;-55
2022/05/03 02:03:13;;;;;;;10.52;3.50;;;;;;;18.86;37.02;101294.97;5091541;28;20296;-54
2022/05/03 02:06:00;;;;;;;10.38;3.10;;;;;;;18.91;36.65;101298.56;5090590;28;20051;-55
2022/05/03 02:08:44;;;;;;;8.05;3.65;;;;;;;18.88;36.83;101298.25;5091584;28;20488;-53
2022/05/03 02:11:41;;;;;;;12.47;3.53;;;;;;;18.98;37.06;101307.31;5090356;28;20036;-53
2022/05/03 02:17:33;;;;;;;8.65;3.53;;;;;;;18.98;36.86;101296.47;5091564;28;20088;-53
2022/05/03 02:20:17;;;;;;;11.07;2.80;;;;;;;19.16;36.23;101292.66;5095229;28;20032;-53
2022/05/03 02:23:12;;;;;;;11.60;2.95;;;;;;;19.28;36.69;101297.16;5093906;28;20032;-54
2022/05/03 02:26:04;;;;;;;10.55;3.10;;;;;;;19.43;35.99;101295.44;5092462;28;20563;-57
2022/05/03 02:28:43;;;;;;;9.57;2.80;;;;;;;19.38;36.23;101297.28;5081748;28;20028;-54
2022/05/03 02:31:15;;;;;;;11.48;3.75;;;;;;;19.29;36.52;101304.22;5094200;28;20040;-54
2022/05/03 02:33:49;;;;;;;12.18;3.15;;;;;;;19.31;36.83;101308.28;5092029;28;20024;-53
2022/05/03 02:36:24;;;;;;;15.52;3.67;;;;;;;19.33;36.99;101291.78;5094362;28;20027;-53
2022/05/03 02:39:04;;;;;;;12.07;4.32;;;;;;;19.22;37.32;101304.41;5094864;28;20031;-54
2022/05/03 02:41:42;;;;;;;14.73;3.78;;;;;;;19.05;37.31;101303.63;5094608;28;20145;-54
2022/05/03 02:44:11;;;;;;;12.38;3.97;;;;;;;18.98;37.48;101304.63;5091682;28;20100;-54
2022/05/03 02:46:41;;;;;;;9.90;3.67;;;;;;;18.79;37.40;101305.16;5094432;28;20020;-54
2022/05/03 02:49:22;;;;;;;17.48;4.45;;;;;;;18.85;37.31;101306.88;5094195;28;20107;-53
2022/05/03 02:52:05;;;;;;;14.82;3.63;;;;;;;18.93;37.33;101303.72;5094487;28;20028;-53
2022/05/03 02:55:10;;;;;;;9.02;2.67;;;;;;;18.50;38.44;101304.44;5094022;28;20039;-54
2022/05/03 02:57:40;;;;;;;8.75;2.90;;;;;;;18.50;38.38;101297.13;5086913;28;20127;-53
2022/05/03 03:02:59;;;;;;;11.25;3.20;;;;;;;18.25;39.07;101313.78;5089092;28;20054;-52
2022/05/03 03:05:29;;;;;;;10.60;3.55;;;;;;;18.20;39.36;101311.81;5083451;28;20032;-54
2022/05/03 03:08:03;;;;;;;11.13;3.00;;;;;;;18.04;39.36;101315.31;5073388;28;20447;-53
2022/05/03 03:10:38;;;;;;;9.85;3.40;;;;;;;17.92;39.36;101311.84;5086506;28;20429;-53
2022/05/03 03:13:22;;;;;;;;;;;;;;;17.92;38.97;101319.97;5078209;28;20043;-54
2022/05/03 03:15:51;;;;;;;10.90;3.10;;;;;;;17.84;39.41;101309.53;5074176;28;20360;-53
2022/05/03 03:18:23;;;;;;;18.77;3.75;;;;;;;17.63;39.19;101309.13;5073359;28;20036;-54
2022/05/03 03:21:00;;;;;;;9.23;3.20;;;;;;;17.53;39.40;101302.69;5073052;28;20131;-54
2022/05/03 03:23:30;;;;;;;10.63;2.83;;;;;;;17.36;39.54;101305.31;5092634;28;20028;-54
2022/05/03 03:25:58;;;;;;;8.75;2.60;;;;;;;17.08;39.10;101311.50;5093925;28;20032;-53
2022/05/03 03:28:28;;;;;;;10.95;3.28;;;;;;;16.94;39.87;101310.94;5093153;28;20032;-53
2022/05/03 03:30:58;;;;;;;11.20;3.15;;;;;;;16.89;40.54;101313.53;5093217;28;20048;-52
2022/05/03 03:33:25;;;;;;;7.93;2.72;;;;;;;17.00;40.59;101322.69;5093229;28;20031;-53
2022/05/03 03:35:55;;;;;;;9.93;2.95;;;;;;;16.89;40.19;101325.16;5093563;28;20020;-53
2022/05/03 03:38:30;;;;;;;10.30;2.80;;;;;;;16.89;39.18;101329.75;5093277;28;20023;-54
2022/05/03 03:40:57;;;;;;;4.18;2.10;;;;;;;16.75;39.40;101339.97;5092854;28;20043;-54
2022/05/03 03:43:23;;;;;;;8.50;2.63;;;;;;;16.52;39.68;101335.34;5092833;28;20028;-54
2022/05/03 03:45:49;;;;;;;10.23;2.72;;;;;;;16.53;39.76;101350.50;5093436;28;20020;-53
2022/05/03 03:48:16;;;;;;;5.95;2.35;;;;;;;16.38;39.98;101358.25;5092939;28;20067;-54
2022/05/03 03:50:44;;;;;;;9.55;2.17;;;;;;;16.09;40.55;101363.44;5082702;28;20757;-53
2022/05/03 03:53:15;;;;;;;9.07;2.55;;;;;;;16.42;40.08;101356.69;5076036;28;20046;-54
2022/05/03 03:55:42;;;;;;;8.68;2.10;;;;;;;16.46;40.29;101351.66;5079695;28;20039;-54
2022/05/03 03:58:10;;;;;;;7.70;2.33;;;;;;;16.29;40.12;101352.34;5083311;28;20143;-53
2022/05/03 04:00:36;;;;;;;8.32;3.08;;;;;;;16.09;39.90;101352.63;5076354;28;20052;-52
2022/05/03 04:03:04;;;;;;;12.07;2.97;;;;;;;15.97;40.48;101367.16;5092684;28;20032;-53
2022/05/03 04:05:34;;;;;;;8.32;2.28;;;;;;;15.91;41.43;101370.75;5093096;28;20094;-54
2022/05/03 04:08:00;;;;;;;11.00;2.58;;;;;;;15.95;41.27;101363.88;5092926;28;20028;-53
2022/05/03 04:10:27;;;;;;;9.07;2.90;;;;;;;15.82;41.57;101363.00;5081490;28;20041;-53
2022/05/03 04:12:53;;;;;;;10.48;2.80;;;;;;;15.71;41.88;101366.47;5072701;28;20028;-53
2022/05/03 04:15:19;;;;;;;10.15;2.88;;;;;;;15.58;42.57;101374.66;5072377;28;20028;-53
2022/05/03 04:17:46;;;;;;;9.30;2.65;;;;;;;15.55;42.68;101380.53;5089037;28;20024;-54
2022/05/03 04:20:15;;;;;;;10.90;2.50;;;;;;;15.73;42.45;101387.81;5092322;28;20035;-53
2022/05/03 04:22:41;;;;;;;5.30;2.28;;;;;;;15.78;41.75;101386.09;5092713;28;20089;-52
2022/05/03 04:25:09;;;;;;;10.35;2.50;;;;;;;15.82;41.98;101394.53;5092673;28;20024;-54
2022/05/03 04:27:35;;;;;;;7.15;2.55;;;;;;;15.66;42.37;101404.09;5092629;28;20132;-54
2022/05/03 04:30:03;;;;;;;12.45;2.90;;;;;;;15.69;41.61;101395.53;5091347;28;20048;-52
2022/05/03 04:32:30;;;;;;;9.90;2.50;;;;;;;15.59;41.90;101401.41;5091980;28;20029;-53
2022/05/03 04:34:57;;;;;;;8.65;2.55;;;;;;;15.66;41.79;101408.66;5091484;28;20028;-53
2022/05/03 04:37:23;;;;;;;8.32;2.70;;;;;;;15.55;41.37;101408.34;5092107;28;20487;-53
2022/05/03 04:39:50;;;;;;;8.23;2.17;;;;;;;15.54;41.69;101408.53;5091494;28;20043;-55
2022/05/03 04:42:16;;;;;;;11.77;2.88;;;;;;;15.75;40.95;101407.28;5092317;28;20030;-54
2022/05/03 04:44:43;;;;;;;9.50;2.88;;;;;;;15.44;41.68;101409.09;5092221;28;20032;-54
2022/05/03 04:47:09;;;;;;;8.27;2.00;;;;;;;15.21;41.90;101411.59;5079854;28;20046;-54
2022/05/03 04:49:35;;;;;;;6.57;2.85;;;;;;;15.37;41.80;101412.88;5071956;28;20025;-53
2022/05/03 04:52:02;;;;;;;9.82;2.35;;;;;;;15.41;41.72;101414.91;5079115;28;20020;-52
2022/05/03 04:54:28;;;;;;;10.75;2.28;;;;;;;15.08;42.76;101422.50;5092097;28;20039;-53
2022/05/03 04:57:02;;;;;;;11.90;2.80;;;;;;;15.14;43.22;101425.13;5092313;28;20020;-52
2022/05/03 04:59:28;;;;;;;10.27;2.85;;;;;;;15.13;42.93;101419.97;5091952;28;20525;-54
2022/05/03 05:01:54;;;;;;;6.18;2.15;;;;;;;15.04;43.43;101428.34;5074060;28;20029;-53
2022/05/03 05:04:20;;;;;;;5.63;2.33;;;;;;;14.92;43.88;101435.50;5071593;28;20081;-54
2022/05/03 05:06:47;;;;;;;8.40;2.65;;;;;;;14.88;42.58;101434.31;5075660;28;20028;-54
2022/05/03 05:09:13;;;;;;;8.77;2.40;;;;;;;14.59;43.47;101443.00;5075403;28;20024;-53
2022/05/03 05:11:39;;;;;;;9.63;2.42;;;;;;;14.51;43.66;101442.22;5074583;28;20345;-53
2022/05/03 05:14:06;;;;;;;7.57;2.33;;;;;;;14.34;44.14;101443.75;5074624;28;20024;-52
2022/05/03 05:16:32;;;;;;;8.07;2.00;;;;;;;14.37;43.98;101440.63;5071062;28;20588;-54
2022/05/03 05:18:58;;;;;;;6.97;2.03;;;;;;;14.46;43.72;101441.19;5077977;28;20024;-52
2022/05/03 05:21:24;;;;;;;10.55;2.70;;;;;;;14.37;44.01;101447.88;5091568;28;20392;-52
2022/05/03 05:23:51;;;;;;;6.63;2.15;;;;;;;14.29;44.03;101438.19;5091796;28;20484;-53
2022/05/03 05:26:17;;;;;;;7.68;2.05;;;;;;;14.35;43.48;101440.03;5091258;28;20020;-54
2022/05/03 05:28:43;;;;;;;5.80;1.70;;;;;;;14.31;43.06;101441.50;5070290;28;20545;-55
2022/05/03 05:31:09;;;;;;;6.22;2.22;;;;;;;14.17;44.18;101448.00;5070827;28;20048;-56
2022/05/03 05:33:36;;;;;;;11.38;2.47;;;;;;;14.43;44.65;101450.53;5071596;28;20108;-55
2022/05/03 05:36:02;;;;;;;7.75;2.25;;;;;;;14.33;43.88;101444.00;5082908;28;20055;-54
2022/05/03 05:38:29;;;;;;;6.18;1.67;;;;;;;14.13;43.68;101449.47;5091934;28;20055;-55
2022/05/03 05:40:55;;;;;;;6.25;2.20;;;;;;;14.25;43.61;101459.34;5088618;28;20035;-54
2022/05/03 05:43:21;;;;;;;5.68;2.10;;;;;;;14.29;43.61;101464.31;5087327;28;20024;-55
2022/05/03 05:45:48;;;;;;;6.55;1.77;;;;;;;14.07;44.00;101461.09;5085831;28;20530;-54
2022/05/03 05:48:15;;;;;;;8.02;1.95;;;;;;;14.00;43.83;101461.94;5089812;28;20119;-52
2022/05/03 05:50:42;;;;;;;6.95;1.98;;;;;;;13.94;44.12;101465.50;5089553;28;20462;-52
2022/05/03 05:55:53;;;;;;;6.65;2.38;;;;;;;14.02;44.28;101469.81;5093904;28;20121;-52
2022/05/03 05:58:20;;;;;;;8.43;2.38;;;;;;;13.73;44.71;101465.78;5095296;28;20032;-52
2022/05/03 06:00:46;;;;;;;6.63;1.77;;;;;;;13.95;44.42;101469.00;5093180;28;20032;-53
2022/05/03 06:03:14;;;;;;;7.28;2.10;;;;;;;13.89;44.32;101469.88;5087851;28;20020;-51
2022/05/03 06:05:40;;;;;;;9.10;2.15;;;;;;;13.80;44.75;101471.13;5078196;28;20020;-52
2022/05/03 06:08:07;;;;;;;6.63;2.25;;;;;;;13.82;45.07;101469.03;5094031;28;20039;-52
2022/05/03 06:10:33;;;;;;;9.02;2.15;;;;;;;13.66;45.59;101473.03;5093049;28;20028;-53
2022/05/03 06:13:00;;;;;;;5.63;2.13;;;;;;;13.70;45.75;101472.38;5094547;28;20120;-52
2022/05/03 06:15:26;;;;;;;7.38;1.55;;;;;;;13.58;46.01;101474.06;5094247;28;20380;-52
2022/05/03 06:17:53;;;;;;;6.90;1.70;;;;;;;13.72;45.83;101482.97;5109028;28;20020;-52
2022/05/03 06:20:19;;;;;;;9.32;2.90;;;;;;;13.62;45.53;101475.31;5074458;28;20032;-51
2022/05/03 06:22:45;;;;;;;9.35;2.40;;;;;;;13.71;44.55;101474.06;5090690;28;20110;-52
2022/05/03 06:25:11;;;;;;;7.05;1.70;;;;;;;13.74;44.66;101475.50;5092791;28;20024;-52
2022/05/03 06:27:39;;;;;;;5.88;1.92;;;;;;;13.57;45.25;101477.81;5094842;28;20028;-53
2022/05/03 06:30:07;;;;;;;5.78;1.70;;;;;;;13.61;44.78;101472.84;5092408;28;20040;-52
2022/05/03 06:32:34;;;;;;;5.18;1.60;;;;;;;13.64;44.94;101467.84;5094750;28;20024;-52
2022/05/03 06:35:00;;;;;;;9.60;1.83;;;;;;;13.61;45.59;101467.47;5092780;28;20036;-53
2022/05/03 06:37:26;;;;;;;5.70;1.77;;;;;;;13.44;45.53;101462.53;5093116;28;20464;-53
2022/05/03 06:39:52;;;;;;;4.38;1.40;;;;;;;13.45;45.52;101464.19;5092037;28;20465;-51
2022/05/03 06:42:19;;;;;;;5.00;1.80;;;;;;;13.44;45.34;101462.53;5085452;28;20388;-51
2022/05/03 06:44:46;;;;;;;3.92;1.85;;;;;;;13.50;45.32;101463.56;5074663;28;20544;-51
2022/05/03 06:47:12;;;;;;;7.07;2.38;;;;;;;13.48;45.31;101474.50;5076519;28;20108;-52
2022/05/03 06:49:38;;;;;;;3.38;1.25;;;;;;;13.42;45.44;101474.50;5094558;28;20028;-52
2022/05/03 06:52:05;;;;;;;5.85;1.92;;;;;;;13.36;45.39;101465.44;5080485;28;20032;-52
2022/05/03 06:54:31;;;;;;;5.70;1.77;;;;;;;13.21;46.15;101462.13;5085475;28;20395;-53
2022/05/03 06:56:57;;;;;;;6.30;1.73;;;;;;;13.27;46.28;101464.00;5073585;28;20058;-52
2022/05/03 06:59:23;;;;;;;9.30;2.20;;;;;;;13.17;46.66;101459.00;5072797;28;20054;-52
2022/05/03 07:01:49;;;;;;;4.60;1.42;;;;;;;13.34;46.44;101459.44;5084828;28;20396;-52
2022/05/03 07:04:16;;;;;;;3.35;1.40;;;;;;;13.30;46.90;101463.56;5083757;28;20039;-52
2022/05/03 07:06:42;;;;;;;6.43;2.38;;;;;;;13.31;46.95;101464.41;5085992;28;20024;-53
2022/05/03 07:09:08;;;;;;;7.68;1.65;;;;;;;13.27;46.69;101457.78;5093623;28;20099;-52
2022/05/03 07:11:34;;;;;;;7.53;1.77;;;;;;;13.29;46.58;101469.16;5089108;28;20530;-52
2022/05/03 07:14:01;;;;;;;5.65;1.73;;;;;;;13.34;46.71;101467.50;5072897;28;20115;-53
2022/05/03 07:16:27;;;;;;;7.75;1.50;;;;;;;13.31;46.43;101459.84;5075233;28;20098;-52
2022/05/03 07:24:22;;;;;;;9.25;2.05;;;;;;;13.18;46.12;101474.09;5071422;28;20138;-53
2022/05/03 07:26:48;;;;;;;6.68;1.73;;;;;;;12.99;46.28;101474.91;5077258;28;20388;-53
2022/05/03 07:29:14;;;;;;;9.52;2.00;;;;;;;13.06;46.22;101474.94;5073234;28;20056;-52
2022/05/03 07:31:41;;;;;;;10.05;1.45;;;;;;;13.06;46.45;101466.88;5088467;28;20126;-52
2022/05/03 07:34:08;;;;;;;6.47;1.40;;;;;;;13.10;46.66;101460.03;5083622;28;20036;-52
2022/05/03 07:36:35;;;;;;;7.35;1.90;;;;;;;13.09;47.15;101461.06;5072729;28;20107;-53
2022/05/03 07:39:02;;;;;;;6.57;1.77;;;;;;;13.29;46.58;101459.22;5083823;28;20031;-52
2022/05/03 07:41:28;;;;;;;6.88;2.15;;;;;;;13.40;46.05;101463.16;5078886;28;20384;-52
2022/05/03 07:43:54;;;;;;;7.32;1.95;;;;;;;13.03;46.74;101451.97;5081216;28;20028;-52
2022/05/03 07:46:21;;;;;;;4.50;1.52;;;;;;;13.20;46.40;101463.13;5092106;28;20514;-54
2022/05/03 07:48:47;;;;;;;4.25;1.70;;;;;;;13.31;46.14;101462.53;5089147;28;20180;-52
2022/05/03 07:51:14;;;;;;;5.07;1.70;;;;;;;13.12;46.49;101461.50;5093247;28;20477;-53
2022/05/03 07:53:40;;;;;;;7.53;1.95;;;;;;;13.18;46.57;101468.72;5076754;28;20040;-52
2022/05/03 07:56:09;;;;;;;8.20;1.73;;;;;;;12.89;47.08;101469.97;5091583;28;20566;-53
2022/05/03 07:58:36;;;;;;;7.13;1.85;;;;;;;12.93;47.22;101473.06;5092171;28;20051;-51
2022/05/03 08:01:04;;;;;;;8.93;1.55;;;;;;;12.80;47.13;101475.75;5092768;28;20388;-53
2022/05/03 08:03:31;;;;;;;6.28;2.00;;;;;;;12.95;46.57;101485.25;5088889;28;20028;-54
2022/05/03 08:05:57;;;;;;;7.50;1.60;;;;;;;12.97;46.33;101484.22;5092969;28;20024;-53
2022/05/03 08:08:23;;;;;;;8.32;1.35;;;;;;;12.88;46.73;101486.28;5076518;28;20029;-53
2022/05/03 08:10:50;;;;;;;5.88;1.73;;;;;;;12.77;46.84;101498.47;5072536;28;20035;-53
2022/05/03 08:13:17;;;;;;;6.60;1.73;;;;;;;12.80;46.93;101494.53;5070301;28;20325;-53
2022/05/03 08:15:43;;;;;;;7.55;2.05;;;;;;;12.77;46.96;101498.47;5071043;28;20040;-52
2022/05/03 08:18:09;;;;;;;7.40;2.22;;;;;;;12.62;46.99;101501.34;5072562;28;20033;-52
2022/05/03 08:20:35;;;;;;;7.63;1.50;;;;;;;12.69;47.28;101501.34;5071566;28;20033;-53
2022/05/03 08:23:02;;;;;;;4.78;1.38;;;;;;;12.73;46.63;101499.09;5071781;28;20032;-53
2022/05/03 08:25:28;;;;;;;6.13;1.60;;;;;;;12.79;46.83;101491.03;5071657;28;20043;-53
2022/05/03 08:27:55;;;;;;;4.75;1.48;;;;;;;12.96;46.30;101494.16;5074027;28;20035;-52
2022/05/03 08:30:21;;;;;;;7.72;1.83;;;;;;;12.98;46.32;101492.06;5090564;28;20048;-52
2022/05/03 08:32:49;;;;;;;7.60;1.80;;;;;;;12.79;46.71;101485.66;5076102;28;20183;-53
2022/05/03 08:35:15;;;;;;;5.57;1.60;;;;;;;12.94;46.52;101494.38;5071176;28;20028;-53
2022/05/03 08:43:11;;;;;;;6.40;1.77;;;;;;;12.51;47.50;101506.47;5072054;28;20117;-53
2022/05/03 08:45:38;;;;;;;5.55;1.77;;;;;;;12.48;47.89;101510.38;5072618;28;20533;-54
2022/05/03 08:48:06;;;;;;;5.93;1.67;;;;;;;12.40;47.96;101508.72;5090550;28;20047;-52
2022/05/03 08:50:34;;;;;;;6.07;2.33;;;;;;;12.21;48.70;101519.38;5089885;28;20055;-53
2022/05/03 08:53:03;;;;;;;6.88;2.40;;;;;;;12.28;47.95;101520.25;5071504;28;20468;-52
2022/05/03 08:55:29;;;;;;;7.05;2.42;;;;;;;12.18;48.14;101517.91;5070635;28;20016;-53
2022/05/03 08:57:56;;;;;;;7.20;2.40;;;;;;;12.34;47.67;101498.78;5071568;28;20879;-53
2022/05/03 09:00:23;;;;;;;5.57;2.00;;;;;;;12.42;47.98;101520.06;5075863;28;20423;-52
2022/05/03 09:02:55;;;;;;;9.25;2.17;;;;;;;12.25;48.94;101516.09;5070694;28;20406;-53
2022/05/03 09:05:23;;;;;;;5.00;1.63;;;;;;;12.30;48.28;101508.25;5071516;28;20037;-52
2022/05/03 09:07:52;;;;;;;3.15;2.22;;;;;;;12.12;48.42;101511.50;5082503;28;20334;-53
2022/05/03 09:10:24;;;;;;;5.75;1.50;;;;;;;12.11;48.78;101515.22;5076834;28;20032;-52
2022/05/03 09:12:51;;;;;;;5.75;1.85;;;;;;;12.00;48.94;101513.09;5071109;28;20025;-53
2022/05/03 09:15:33;;;;;;;4.38;1.80;;;;;;;12.04;48.69;101516.19;5069890;28;20017;-52
2022/05/03 09:18:01;;;;;;;3.80;1.63;;;;;;;11.99;49.00;101516.78;5071194;28;20036;-52
2022/05/03 09:26:15;;;;;;;5.30;1.45;;;;;;;12.28;48.08;101520.25;5075682;28;20110;-53
2022/05/03 09:28:46;;;;;;;6.07;1.25;;;;;;;12.14;48.09;101522.84;5071272;28;20029;-53
2022/05/03 09:31:12;;;;;;;6.93;1.77;;;;;;;12.19;47.88;101527.63;5075143;28;20041;-53
2022/05/03 09:33:39;;;;;;;4.20;1.75;;;;;;;12.23;47.48;101541.47;5071467;28;20025;-53
2022/05/03 09:36:10;;;;;;;7.38;1.40;;;;;;;12.37;47.01;101535.94;5071044;28;20029;-53
2022/05/03 09:38:50;;;;;;;6.65;1.60;;;;;;;12.32;47.31;101526.84;5071046;28;20029;-51
2022/05/03 09:41:17;;;;;;;7.78;1.75;;;;;;;12.00;48.13;101531.06;5080791;28;20031;-52
2022/05/03 09:44:09;;;;;;;6.60;1.50;;;;;;;12.24;47.53;101522.47;5077240;28;20033;-53
2022/05/03 09:46:52;;;;;;;9.25;1.90;;;;;;;12.25;47.38;101513.41;5071212;28;20477;-52
2022/05/03 09:49:20;;;;;;;5.38;1.58;;;;;;;12.00;48.04;101515.78;5071082;28;20082;-51
2022/05/03 09:51:49;;;;;;;5.70;1.63;;;;;;;12.04;48.49;101525.06;5071071;28;20401;-53
2022/05/03 09:54:16;;;;;;;9.02;1.80;;;;;;;11.96;49.13;101527.09;5071023;28;20027;-53
2022/05/03 09:56:47;;;;;;;9.57;2.00;;;;;;;11.94;48.58;101523.78;5071231;28;20021;-53
2022/05/03 09:59:14;;;;;;;6.55;1.40;;;;;;;11.85;49.16;101521.25;5087747;28;20043;-53
2022/05/03 10:01:42;;;;;;;9.25;1.90;;;;;;;11.80;49.42;101517.47;5091464;28;20515;-53
2022/05/03 10:04:08;;;;;;;5.05;1.80;;;;;;;11.84;49.25;101521.47;5089825;28;20435;-54
2022/05/03 10:06:35;;;;;;;3.55;1.17;;;;;;;11.67;50.04;101518.25;5080175;28;20025;-53
2022/05/03 10:09:01;;;;;;;8.18;1.67;;;;;;;11.72;49.42;101520.34;5084273;28;20092;-52
2022/05/03 10:11:28;;;;;;;12.45;2.20;;;;;;;11.71;49.13;101519.47;5091185;28;20047;-53
2022/05/03 10:13:54;;;;;;;4.85;1.35;;;;;;;11.68;49.45;101517.22;5074782;28;20028;-52
2022/05/03 10:22:03;;;;;;;5.93;1.77;;;;;;;11.45;50.24;101528.19;5070645;28;20086;-53
2022/05/03 10:24:31;;;;;;;6.63;1.58;;;;;;;11.80;49.38;101523.69;5070917;28;20407;-52
2022/05/03 10:27:05;;;;;;;3.65;1.38;;;;;;;11.94;49.35;101521.94;5069445;28;20021;-52
2022/05/03 10:29:36;;;;;;;6.70;1.80;;;;;;;11.64;49.82;101508.72;5069899;28;20073;-53
2022/05/03 10:32:09;;;;;;;6.90;2.15;;;;;;;11.52;49.90;101512.97;5071728;28;20040;-52
2022/05/03 10:34:42;;;;;;;6.05;1.60;;;;;;;11.22;51.20;101515.03;5073827;28;20036;-52
2022/05/03 10:37:13;;;;;;;5.28;1.42;;;;;;;11.21;51.64;101512.53;5068580;28;20071;-50
2022/05/03 10:39:46;;;;;;;7.07;1.70;;;;;;;11.28;51.18;101508.88;5071897;28;20098;-52
2022/05/03 10:42:15;;;;;;;7.95;1.70;;;;;;;11.28;51.58;101508.88;5074094;28;20051;-52
2022/05/03 10:44:50;;;;;;;5.10;1.80;;;;;;;11.18;52.21;101516.44;5073346;28;20090;-54
2022/05/03 10:47:38;;;;;;;9.77;1.90;;;;;;;10.84;53.47;101517.97;5071978;28;20133;-53
2022/05/03 10:50:16;;;;;;;7.57;1.50;;;;;;;11.01;53.04;101512.38;5073527;28;20040;-53
2022/05/03 10:53:01;;;;;;;7.95;1.77;;;;;;;11.10;52.88;101511.19;5090974;28;20479;-52
2022/05/03 10:55:37;;;;;;;4.30;1.65;;;;;;;11.16;52.79;101515.81;5079570;28;20040;-54
2022/05/03 10:58:26;;;;;;;4.57;1.60;;;;;;;11.12;52.89;101514.53;5094643;28;20024;-53
2022/05/03 11:01:21;;;;;;;8.13;1.63;;;;;;;11.27;52.83;101519.78;5089232;28;20035;-52
2022/05/03 11:03:48;;;;;;;7.68;2.13;;;;;;;11.27;52.37;101509.06;5091033;28;20020;-53
2022/05/03 11:06:23;;;;;;;6.28;1.80;;;;;;;11.10;52.43;101512.03;5084277;28;20028;-51
2022/05/03 11:11:39;;;;;;;;;;;;;;;10.97;52.90;101516.44;5077287;28;20487;-54
2022/05/03 11:14:26;;;;;;;5.25;1.58;;;;;;;10.86;53.04;101516.94;5093169;28;20018;-53
2022/05/03 11:17:05;;;;;;;6.78;2.20;;;;;;;10.96;52.92;101514.78;5076759;28;20376;-53
2022/05/03 11:19:51;;;;;;;7.25;2.03;;;;;;;10.72;53.23;101527.53;5081438;28;20427;-53
2022/05/03 11:22:19;;;;;;;4.85;1.58;;;;;;;10.89;53.09;101524.63;5094549;28;20060;-54
2022/05/03 11:24:51;;;;;;;5.97;1.83;;;;;;;10.96;53.31;101520.97;5091336;28;20039;-53
2022/05/03 11:27:19;;;;;;;6.45;1.48;;;;;;;10.93;52.56;101510.63;5091487;28;20024;-53
2022/05/03 11:29:59;;;;;;;6.22;1.83;;;;;;;10.90;52.66;101507.53;5090659;28;20276;-54
2022/05/03 11:32:37;;;;;;;6.57;1.90;;;;;;;10.88;52.67;101513.06;5089539;28;20024;-53
2022/05/03 11:35:16;;;;;;;4.72;1.48;;;;;;;10.57;54.13;101516.03;5074417;28;20039;-53
2022/05/03 11:38:02;;;;;;;4.78;1.73;;;;;;;10.68;54.25;101515.53;5072638;28;20439;-53
2022/05/03 11:40:29;;;;;;;4.75;1.60;;;;;;;10.44;55.03;101506.03;5073924;28;20040;-54
2022/05/03 11:42:55;;;;;;;6.28;1.60;;;;;;;10.32;55.76;101516.38;5080033;28;20035;-54
2022/05/03 11:45:21;;;;;;;5.20;1.67;;;;;;;10.34;55.61;101518.06;5091927;28;20483;-53
2022/05/03 11:47:50;;;;;;;11.60;2.25;;;;;;;10.39;55.40;101524.50;5077565;28;20039;-54
2022/05/03 11:56:29;;;;;;;4.85;1.77;;;;;;;10.58;55.31;101518.53;5049164;28;20090;-52
2022/05/03 11:58:55;;;;;;;9.20;1.70;;;;;;;10.42;55.83;101520.59;5046930;28;20040;-51
2022/05/03 12:01:23;;;;;;;7.13;2.22;;;;;;;10.29;56.43;101519.44;5032698;22;20044;-53
2022/05/03 12:03:56;;;;;;;4.30;1.48;;;;;;;10.31;56.38;101527.25;4999488;28;20050;-54
2022/05/03 12:06:22;;;;;;;4.30;1.58;;;;;;;10.04;56.96;101526.06;4994749;28;20077;-52
2022/05/03 12:08:50;;;;;;;8.20;2.13;;;;;;;10.04;56.87;101526.88;5012891;28;20109;-54
2022/05/03 12:11:20;;;;;;;8.85;1.90;;;;;;;10.27;56.25;101525.97;5012703;28;20509;-54
2022/05/03 12:13:46;;;;;;;3.97;1.70;;;;;;;10.35;55.56;101525.88;5012478;28;20486;-53
2022/05/03 12:16:16;;;;;;;9.05;1.65;;;;;;;10.46;55.59;101521.91;5012168;28;20045;-54
2022/05/03 12:18:48;;;;;;;7.55;1.77;;;;;;;10.62;55.53;101524.34;5012511;28;20364;-55
2022/05/03 12:21:21;;;;;;;6.53;1.70;;;;;;;10.55;55.73;101529.63;5003281;28;20402;-54
2022/05/03 12:23:50;;;;;;;7.25;1.75;;;;;;;10.47;56.11;101534.25;4993353;28;20030;-51
2022/05/03 12:26:19;;;;;;;7.05;1.75;;;;;;;10.47;56.61;101531.56;4992892;28;20027;-53
2022/05/03 12:28:48;;;;;;;8.90;2.00;;;;;;;10.31;57.21;101541.47;4993411;28;20072;-52